Details for FedEx at KIND




Go Back


Latest METAR
Local Time

KIND 241318Z 09008KT 5SM RA BR FEW005 OVC060 06/05 A3012 RMK AO2 P0005 T00560050

24/02/2018, 08:44:47

Description
Results
FedEx Logo
Number of Pilots based at KIND
0 Pilots Based here
Number of FedEx Flights Departed from KIND
0 Flights Departed
Number of FedEx Flights Arrived at KIND
0 Flights Arrived
Number of FedEx Schedules Departing from KIND
228 Schedules
Number of FedEx Schedules Arriving at KIND
218 Schedules
Number of FedEx Schedules Departing from KIND availible today
17 Schedules Today
Number of FedEx Schedules Arriving at KIND availible today
18 Schedules Today
Average Landing Rate at KIND
-151 fpm
FedEx Average Landing Rate at KIND
0 fpm
Total Fuel Purchased at KIND by FedEx
0.00 kgs / 0.00 lbs

Pilots Based at KIND


Pilot ID
Pilot Name
Pilot Rank
No. of Flights
No. of Flying Hours
There are no pilots assigned to this hub!   Will you be the first?
Content